sensor_id;sensor_type;location;lat;lon;timestamp;temperature;humidity
71098;SHT35;58754;47.622;-2.986;2023-03-21T00:02:17;16.71;59.21
71098;SHT35;58754;47.622;-2.986;2023-03-21T00:04:43;16.71;59.22
71098;SHT35;58754;47.622;-2.986;2023-03-21T00:07:09;16.72;59.23
71098;SHT35;58754;47.622;-2.986;2023-03-21T00:09:34;16.71;59.20
71098;SHT35;58754;47.622;-2.986;2023-03-21T00:12:00;16.73;59.22
71098;SHT35;58754;47.622;-2.986;2023-03-21T00:14:27;16.75;59.24
71098;SHT35;58754;47.622;-2.986;2023-03-21T00:16:55;16.72;59.21
71098;SHT35;58754;47.622;-2.986;2023-03-21T00:19:21;16.73;59.22
71098;SHT35;58754;47.622;-2.986;2023-03-21T00:21:49;16.72;59.28
71098;SHT35;58754;47.622;-2.986;2023-03-21T00:24:16;16.72;59.26
71098;SHT35;58754;47.622;-2.986;2023-03-21T00:26:43;16.71;59.27
71098;SHT35;58754;47.622;-2.986;2023-03-21T00:29:09;16.73;59.23
71098;SHT35;58754;47.622;-2.986;2023-03-21T00:31:34;16.73;59.27
71098;SHT35;58754;47.622;-2.986;2023-03-21T00:34:00;16.71;59.24
71098;SHT35;58754;47.622;-2.986;2023-03-21T00:36:27;16.71;59.23
71098;SHT35;58754;47.622;-2.986;2023-03-21T00:38:53;16.72;59.29
71098;SHT35;58754;47.622;-2.986;2023-03-21T00:41:19;16.72;59.27
71098;SHT35;58754;47.622;-2.986;2023-03-21T00:43:45;16.73;59.25
71098;SHT35;58754;47.622;-2.986;2023-03-21T00:46:10;16.75;59.28
71098;SHT35;58754;47.622;-2.986;2023-03-21T00:48:36;16.72;59.32
71098;SHT35;58754;47.622;-2.986;2023-03-21T00:51:13;16.75;59.27
71098;SHT35;58754;47.622;-2.986;2023-03-21T00:53:40;16.71;59.28
71098;SHT35;58754;47.622;-2.986;2023-03-21T00:56:06;16.73;59.31
71098;SHT35;58754;47.622;-2.986;2023-03-21T00:58:32;16.76;59.28
71098;SHT35;58754;47.622;-2.986;2023-03-21T01:00:58;16.71;59.32
71098;SHT35;58754;47.622;-2.986;2023-03-21T01:03:28;16.73;59.32
71098;SHT35;58754;47.622;-2.986;2023-03-21T01:05:54;16.71;59.30
71098;SHT35;58754;47.622;-2.986;2023-03-21T01:08:34;16.72;59.32
71098;SHT35;58754;47.622;-2.986;2023-03-21T01:11:03;16.72;59.31
71098;SHT35;58754;47.622;-2.986;2023-03-21T01:13:30;16.73;59.36
71098;SHT35;58754;47.622;-2.986;2023-03-21T01:15:56;16.72;59.33
71098;SHT35;58754;47.622;-2.986;2023-03-21T01:18:24;16.72;59.33
71098;SHT35;58754;47.622;-2.986;2023-03-21T01:20:52;16.72;59.35
71098;SHT35;58754;47.622;-2.986;2023-03-21T01:23:18;16.72;59.39
71098;SHT35;58754;47.622;-2.986;2023-03-21T01:25:47;16.72;59.36
71098;SHT35;58754;47.622;-2.986;2023-03-21T01:28:13;16.71;59.37
71098;SHT35;58754;47.622;-2.986;2023-03-21T01:30:47;16.71;59.39
71098;SHT35;58754;47.622;-2.986;2023-03-21T01:33:14;16.71;59.35
71098;SHT35;58754;47.622;-2.986;2023-03-21T01:35:40;16.73;59.42
71098;SHT35;58754;47.622;-2.986;2023-03-21T01:38:05;16.72;59.41
71098;SHT35;58754;47.622;-2.986;2023-03-21T01:40:31;16.73;59.42
71098;SHT35;58754;47.622;-2.986;2023-03-21T01:42:57;16.73;59.43
71098;SHT35;58754;47.622;-2.986;2023-03-21T01:48:27;16.73;59.43
71098;SHT35;58754;47.622;-2.986;2023-03-21T01:50:54;16.72;59.42
71098;SHT35;58754;47.622;-2.986;2023-03-21T01:53:23;16.72;59.44
71098;SHT35;58754;47.622;-2.986;2023-03-21T01:55:56;16.71;59.43
71098;SHT35;58754;47.622;-2.986;2023-03-21T01:58:23;16.71;59.43
71098;SHT35;58754;47.622;-2.986;2023-03-21T02:00:49;16.72;59.44
71098;SHT35;58754;47.622;-2.986;2023-03-21T02:03:17;16.71;59.48
71098;SHT35;58754;47.622;-2.986;2023-03-21T02:05:58;16.72;59.44
71098;SHT35;58754;47.622;-2.986;2023-03-21T02:08:30;16.72;59.51
71098;SHT35;58754;47.622;-2.986;2023-03-21T02:10:57;16.71;59.50
71098;SHT35;58754;47.622;-2.986;2023-03-21T02:13:23;16.71;59.48
71098;SHT35;58754;47.622;-2.986;2023-03-21T02:16:19;16.73;59.51
71098;SHT35;58754;47.622;-2.986;2023-03-21T02:19:13;16.71;59.52
71098;SHT35;58754;47.622;-2.986;2023-03-21T02:25:07;16.72;59.55
71098;SHT35;58754;47.622;-2.986;2023-03-21T02:27:41;16.71;59.55
71098;SHT35;58754;47.622;-2.986;2023-03-21T02:33:21;16.68;59.60
71098;SHT35;58754;47.622;-2.986;2023-03-21T02:36:17;16.69;59.60
71098;SHT35;58754;47.622;-2.986;2023-03-21T02:38:58;16.71;59.62
71098;SHT35;58754;47.622;-2.986;2023-03-21T02:45:19;16.72;59.57
71098;SHT35;58754;47.622;-2.986;2023-03-21T02:47:25;16.71;59.58
71098;SHT35;58754;47.622;-2.986;2023-03-21T02:50:15;16.72;59.62
71098;SHT35;58754;47.622;-2.986;2023-03-21T02:52:46;16.71;59.59
71098;SHT35;58754;47.622;-2.986;2023-03-21T02:55:21;16.71;59.60
71098;SHT35;58754;47.622;-2.986;2023-03-21T02:57:50;16.72;59.63
71098;SHT35;58754;47.622;-2.986;2023-03-21T03:00:25;16.71;59.63
71098;SHT35;58754;47.622;-2.986;2023-03-21T03:02:52;16.72;59.63
71098;SHT35;58754;47.622;-2.986;2023-03-21T03:05:22;16.72;59.65
71098;SHT35;58754;47.622;-2.986;2023-03-21T03:08:13;16.72;59.66
71098;SHT35;58754;47.622;-2.986;2023-03-21T03:11:01;16.73;59.64
71098;SHT35;58754;47.622;-2.986;2023-03-21T03:13:34;16.72;59.66
71098;SHT35;58754;47.622;-2.986;2023-03-21T03:19:10;16.72;59.62
71098;SHT35;58754;47.622;-2.986;2023-03-21T03:21:41;16.71;59.67
71098;SHT35;58754;47.622;-2.986;2023-03-21T03:24:13;16.72;59.67
71098;SHT35;58754;47.622;-2.986;2023-03-21T03:26:54;16.72;59.70
71098;SHT35;58754;47.622;-2.986;2023-03-21T03:29:23;16.69;59.68
71098;SHT35;58754;47.622;-2.986;2023-03-21T03:32:14;16.72;59.70
71098;SHT35;58754;47.622;-2.986;2023-03-21T03:34:47;16.71;59.66
71098;SHT35;58754;47.622;-2.986;2023-03-21T03:37:17;16.72;59.67
71098;SHT35;58754;47.622;-2.986;2023-03-21T03:40:00;16.72;59.68
71098;SHT35;58754;47.622;-2.986;2023-03-21T03:42:51;16.72;59.73
71098;SHT35;58754;47.622;-2.986;2023-03-21T03:45:19;16.72;59.70
71098;SHT35;58754;47.622;-2.986;2023-03-21T03:47:54;16.71;59.72
71098;SHT35;58754;47.622;-2.986;2023-03-21T03:53:22;16.72;59.70
71098;SHT35;58754;47.622;-2.986;2023-03-21T03:55:50;16.72;59.73
71098;SHT35;58754;47.622;-2.986;2023-03-21T03:58:21;16.72;59.75
71098;SHT35;58754;47.622;-2.986;2023-03-21T04:00:47;16.73;59.76
71098;SHT35;58754;47.622;-2.986;2023-03-21T04:03:14;16.71;59.72
71098;SHT35;58754;47.622;-2.986;2023-03-21T04:05:40;16.72;59.72
71098;SHT35;58754;47.622;-2.986;2023-03-21T04:08:07;16.73;59.75
71098;SHT35;58754;47.622;-2.986;2023-03-21T04:10:34;16.73;59.74
71098;SHT35;58754;47.622;-2.986;2023-03-21T04:12:59;16.72;59.76
71098;SHT35;58754;47.622;-2.986;2023-03-21T04:15:25;16.71;59.77
71098;SHT35;58754;47.622;-2.986;2023-03-21T04:17:51;16.72;59.76
71098;SHT35;58754;47.622;-2.986;2023-03-21T04:20:16;16.73;59.76
71098;SHT35;58754;47.622;-2.986;2023-03-21T04:22:42;16.72;59.82
71098;SHT35;58754;47.622;-2.986;2023-03-21T04:25:08;16.72;59.74
71098;SHT35;58754;47.622;-2.986;2023-03-21T04:27:34;16.73;59.80
71098;SHT35;58754;47.622;-2.986;2023-03-21T04:30:00;16.73;59.80
71098;SHT35;58754;47.622;-2.986;2023-03-21T04:32:26;16.72;59.83
71098;SHT35;58754;47.622;-2.986;2023-03-21T04:34:52;16.73;59.80
71098;SHT35;58754;47.622;-2.986;2023-03-21T04:37:21;16.72;59.80
71098;SHT35;58754;47.622;-2.986;2023-03-21T04:39:49;16.73;59.85
71098;SHT35;58754;47.622;-2.986;2023-03-21T04:42:16;16.72;59.82
71098;SHT35;58754;47.622;-2.986;2023-03-21T04:44:46;16.73;59.86
71098;SHT35;58754;47.622;-2.986;2023-03-21T04:47:13;16.73;59.86
71098;SHT35;58754;47.622;-2.986;2023-03-21T04:49:41;16.73;59.83
71098;SHT35;58754;47.622;-2.986;2023-03-21T04:52:07;16.73;59.84
71098;SHT35;58754;47.622;-2.986;2023-03-21T04:54:32;16.71;59.84
71098;SHT35;58754;47.622;-2.986;2023-03-21T04:56:58;16.72;59.83
71098;SHT35;58754;47.622;-2.986;2023-03-21T04:59:24;16.73;59.86
71098;SHT35;58754;47.622;-2.986;2023-03-21T05:01:50;16.75;59.85
71098;SHT35;58754;47.622;-2.986;2023-03-21T05:04:17;16.73;59.88
71098;SHT35;58754;47.622;-2.986;2023-03-21T05:06:44;16.72;59.87
71098;SHT35;58754;47.622;-2.986;2023-03-21T05:09:10;16.75;59.86
71098;SHT35;58754;47.622;-2.986;2023-03-21T05:11:38;16.71;59.85
71098;SHT35;58754;47.622;-2.986;2023-03-21T05:14:10;16.73;59.90
71098;SHT35;58754;47.622;-2.986;2023-03-21T05:16:39;16.73;59.89
71098;SHT35;58754;47.622;-2.986;2023-03-21T05:19:13;16.72;59.87
71098;SHT35;58754;47.622;-2.986;2023-03-21T05:21:40;16.72;59.87
71098;SHT35;58754;47.622;-2.986;2023-03-21T05:24:14;16.71;59.88
71098;SHT35;58754;47.622;-2.986;2023-03-21T05:26:42;16.72;59.93
71098;SHT35;58754;47.622;-2.986;2023-03-21T05:29:09;16.73;59.91
71098;SHT35;58754;47.622;-2.986;2023-03-21T05:31:35;16.73;59.94
71098;SHT35;58754;47.622;-2.986;2023-03-21T05:34:01;16.76;59.93
71098;SHT35;58754;47.622;-2.986;2023-03-21T05:36:27;16.73;59.94
71098;SHT35;58754;47.622;-2.986;2023-03-21T05:38:53;16.73;59.91
71098;SHT35;58754;47.622;-2.986;2023-03-21T05:41:19;16.73;59.92
71098;SHT35;58754;47.622;-2.986;2023-03-21T05:43:46;16.73;59.94
71098;SHT35;58754;47.622;-2.986;2023-03-21T05:46:12;16.75;59.93
71098;SHT35;58754;47.622;-2.986;2023-03-21T05:48:37;16.75;59.94
71098;SHT35;58754;47.622;-2.986;2023-03-21T05:51:03;16.72;59.95
71098;SHT35;58754;47.622;-2.986;2023-03-21T05:53:29;16.73;59.98
71098;SHT35;58754;47.622;-2.986;2023-03-21T05:55:55;16.75;60.00
71098;SHT35;58754;47.622;-2.986;2023-03-21T05:58:21;16.75;59.94
71098;SHT35;58754;47.622;-2.986;2023-03-21T06:00:47;16.73;59.98
71098;SHT35;58754;47.622;-2.986;2023-03-21T06:03:12;16.75;59.98
71098;SHT35;58754;47.622;-2.986;2023-03-21T06:05:38;16.75;60.00
71098;SHT35;58754;47.622;-2.986;2023-03-21T06:08:04;16.72;59.99
71098;SHT35;58754;47.622;-2.986;2023-03-21T06:10:30;16.73;60.00
71098;SHT35;58754;47.622;-2.986;2023-03-21T06:12:56;16.73;60.02
71098;SHT35;58754;47.622;-2.986;2023-03-21T06:15:21;16.76;60.03
71098;SHT35;58754;47.622;-2.986;2023-03-21T06:17:47;16.73;60.01
71098;SHT35;58754;47.622;-2.986;2023-03-21T06:20:13;16.72;59.98
71098;SHT35;58754;47.622;-2.986;2023-03-21T06:22:40;16.73;60.02
71098;SHT35;58754;47.622;-2.986;2023-03-21T06:25:06;16.75;60.04
71098;SHT35;58754;47.622;-2.986;2023-03-21T06:27:33;16.72;60.06
71098;SHT35;58754;47.622;-2.986;2023-03-21T06:29:59;16.72;60.05
71098;SHT35;58754;47.622;-2.986;2023-03-21T06:32:25;16.73;60.06
71098;SHT35;58754;47.622;-2.986;2023-03-21T06:34:51;16.75;60.03
71098;SHT35;58754;47.622;-2.986;2023-03-21T06:37:17;16.73;60.06
71098;SHT35;58754;47.622;-2.986;2023-03-21T06:39:43;16.76;60.16
71098;SHT35;58754;47.622;-2.986;2023-03-21T06:42:11;16.73;60.08
71098;SHT35;58754;47.622;-2.986;2023-03-21T06:44:37;16.75;60.09
71098;SHT35;58754;47.622;-2.986;2023-03-21T06:47:03;16.73;60.07
71098;SHT35;58754;47.622;-2.986;2023-03-21T06:49:29;16.72;60.05
71098;SHT35;58754;47.622;-2.986;2023-03-21T06:51:55;16.72;60.09
71098;SHT35;58754;47.622;-2.986;2023-03-21T06:54:20;16.75;60.07
71098;SHT35;58754;47.622;-2.986;2023-03-21T06:56:46;16.71;60.06
71098;SHT35;58754;47.622;-2.986;2023-03-21T06:59:12;16.73;60.05
71098;SHT35;58754;47.622;-2.986;2023-03-21T07:01:38;16.75;60.08
71098;SHT35;58754;47.622;-2.986;2023-03-21T07:04:04;16.75;60.10
71098;SHT35;58754;47.622;-2.986;2023-03-21T07:06:31;16.73;60.09
71098;SHT35;58754;47.622;-2.986;2023-03-21T07:08:56;16.72;60.10
71098;SHT35;58754;47.622;-2.986;2023-03-21T07:11:23;16.72;60.10
71098;SHT35;58754;47.622;-2.986;2023-03-21T07:13:50;16.73;60.15
71098;SHT35;58754;47.622;-2.986;2023-03-21T07:16:16;16.73;60.10
71098;SHT35;58754;47.622;-2.986;2023-03-21T07:18:43;16.73;60.09
71098;SHT35;58754;47.622;-2.986;2023-03-21T07:21:09;16.73;60.09
71098;SHT35;58754;47.622;-2.986;2023-03-21T07:23:35;16.73;60.15
71098;SHT35;58754;47.622;-2.986;2023-03-21T07:26:00;16.73;60.16
71098;SHT35;58754;47.622;-2.986;2023-03-21T07:28:26;16.76;60.10
71098;SHT35;58754;47.622;-2.986;2023-03-21T07:30:58;16.73;60.12
71098;SHT35;58754;47.622;-2.986;2023-03-21T07:33:24;16.73;60.13
71098;SHT35;58754;47.622;-2.986;2023-03-21T07:35:51;16.73;60.14
71098;SHT35;58754;47.622;-2.986;2023-03-21T07:38:18;16.75;60.16
71098;SHT35;58754;47.622;-2.986;2023-03-21T07:40:45;16.72;60.19
71098;SHT35;58754;47.622;-2.986;2023-03-21T07:43:12;16.75;60.17
71098;SHT35;58754;47.622;-2.986;2023-03-21T07:45:37;16.73;60.14
71098;SHT35;58754;47.622;-2.986;2023-03-21T07:48:03;16.73;60.20
71098;SHT35;58754;47.622;-2.986;2023-03-21T07:50:29;16.75;60.19
71098;SHT35;58754;47.622;-2.986;2023-03-21T07:52:55;16.73;60.19
71098;SHT35;58754;47.622;-2.986;2023-03-21T07:55:21;16.73;60.21
71098;SHT35;58754;47.622;-2.986;2023-03-21T07:57:50;16.73;60.19
71098;SHT35;58754;47.622;-2.986;2023-03-21T08:00:20;16.75;60.19
71098;SHT35;58754;47.622;-2.986;2023-03-21T08:02:52;16.73;60.19
71098;SHT35;58754;47.622;-2.986;2023-03-21T08:05:32;16.75;60.23
71098;SHT35;58754;47.622;-2.986;2023-03-21T08:07:59;16.76;60.22
71098;SHT35;58754;47.622;-2.986;2023-03-21T08:10:25;16.73;60.22
71098;SHT35;58754;47.622;-2.986;2023-03-21T08:12:50;16.73;60.20
71098;SHT35;58754;47.622;-2.986;2023-03-21T08:15:16;16.75;60.25
71098;SHT35;58754;47.622;-2.986;2023-03-21T08:17:42;16.73;60.26
71098;SHT35;58754;47.622;-2.986;2023-03-21T08:20:21;16.75;60.28
71098;SHT35;58754;47.622;-2.986;2023-03-21T08:22:48;16.76;60.28
71098;SHT35;58754;47.622;-2.986;2023-03-21T08:25:15;16.75;60.27
71098;SHT35;58754;47.622;-2.986;2023-03-21T08:27:43;16.75;60.27
71098;SHT35;58754;47.622;-2.986;2023-03-21T08:30:11;16.75;60.28
71098;SHT35;58754;47.622;-2.986;2023-03-21T08:32:38;16.75;60.27
71098;SHT35;58754;47.622;-2.986;2023-03-21T08:35:05;16.75;60.26
71098;SHT35;58754;47.622;-2.986;2023-03-21T08:37:35;16.73;60.29
71098;SHT35;58754;47.622;-2.986;2023-03-21T08:40:02;16.75;60.31
71098;SHT35;58754;47.622;-2.986;2023-03-21T08:42:31;16.73;60.28
71098;SHT35;58754;47.622;-2.986;2023-03-21T08:44:57;16.75;60.31
71098;SHT35;58754;47.622;-2.986;2023-03-21T08:47:22;16.76;60.30
71098;SHT35;58754;47.622;-2.986;2023-03-21T08:49:48;16.73;60.28
71098;SHT35;58754;47.622;-2.986;2023-03-21T08:52:14;16.73;60.30
71098;SHT35;58754;47.622;-2.986;2023-03-21T08:54:39;16.76;60.28
71098;SHT35;58754;47.622;-2.986;2023-03-21T08:57:07;16.76;60.31
71098;SHT35;58754;47.622;-2.986;2023-03-21T08:59:33;16.76;60.29
71098;SHT35;58754;47.622;-2.986;2023-03-21T09:01:59;16.75;60.30
71098;SHT35;58754;47.622;-2.986;2023-03-21T09:04:25;16.77;60.29
71098;SHT35;58754;47.622;-2.986;2023-03-21T09:06:51;16.76;60.29
71098;SHT35;58754;47.622;-2.986;2023-03-21T09:09:17;16.73;60.28
71098;SHT35;58754;47.622;-2.986;2023-03-21T09:11:43;16.76;60.27
71098;SHT35;58754;47.622;-2.986;2023-03-21T09:14:09;16.76;60.30
71098;SHT35;58754;47.622;-2.986;2023-03-21T09:16:36;16.76;60.30
71098;SHT35;58754;47.622;-2.986;2023-03-21T09:19:02;16.79;60.28
71098;SHT35;58754;47.622;-2.986;2023-03-21T09:21:29;16.76;60.27
71098;SHT35;58754;47.622;-2.986;2023-03-21T09:23:55;16.75;60.29
71098;SHT35;58754;47.622;-2.986;2023-03-21T09:26:24;16.75;60.27
71098;SHT35;58754;47.622;-2.986;2023-03-21T09:28:50;16.79;60.32
71098;SHT35;58754;47.622;-2.986;2023-03-21T09:31:17;16.77;60.32
71098;SHT35;58754;47.622;-2.986;2023-03-21T09:33:50;16.77;60.28
71098;SHT35;58754;47.622;-2.986;2023-03-21T09:36:17;16.77;60.27
71098;SHT35;58754;47.622;-2.986;2023-03-21T09:38:47;16.77;60.28
71098;SHT35;58754;47.622;-2.986;2023-03-21T09:41:31;16.76;60.31
71098;SHT35;58754;47.622;-2.986;2023-03-21T09:49:40;16.80;60.30
71098;SHT35;58754;47.622;-2.986;2023-03-21T09:55:21;16.76;60.30
71098;SHT35;58754;47.622;-2.986;2023-03-21T10:00:34;16.77;60.32
71098;SHT35;58754;47.622;-2.986;2023-03-21T10:03:04;16.79;60.35
71098;SHT35;58754;47.622;-2.986;2023-03-21T10:05:32;16.79;60.35
71098;SHT35;58754;47.622;-2.986;2023-03-21T10:08:19;16.79;60.28
71098;SHT35;58754;47.622;-2.986;2023-03-21T10:10:59;16.76;60.35
71098;SHT35;58754;47.622;-2.986;2023-03-21T10:13:32;16.80;60.33
71098;SHT35;58754;47.622;-2.986;2023-03-21T10:16:11;16.77;60.34
71098;SHT35;58754;47.622;-2.986;2023-03-21T10:18:40;16.79;60.30
71098;SHT35;58754;47.622;-2.986;2023-03-21T10:21:12;16.77;60.28
71098;SHT35;58754;47.622;-2.986;2023-03-21T10:23:41;16.79;60.31
71098;SHT35;58754;47.622;-2.986;2023-03-21T10:26:07;16.82;60.31
71098;SHT35;58754;47.622;-2.986;2023-03-21T10:28:36;16.79;60.31
71098;SHT35;58754;47.622;-2.986;2023-03-21T10:31:06;16.79;60.31
71098;SHT35;58754;47.622;-2.986;2023-03-21T10:33:37;16.79;60.29
71098;SHT35;58754;47.622;-2.986;2023-03-21T10:36:10;16.79;60.30
71098;SHT35;58754;47.622;-2.986;2023-03-21T10:38:47;16.79;60.30
71098;SHT35;58754;47.622;-2.986;2023-03-21T10:41:13;16.83;60.31
71098;SHT35;58754;47.622;-2.986;2023-03-21T10:43:40;16.80;60.31
71098;SHT35;58754;47.622;-2.986;2023-03-21T10:46:19;16.79;60.34
71098;SHT35;58754;47.622;-2.986;2023-03-21T10:48:51;16.80;60.35
71098;SHT35;58754;47.622;-2.986;2023-03-21T10:51:26;16.79;60.32
71098;SHT35;58754;47.622;-2.986;2023-03-21T10:53:56;16.80;60.34
71098;SHT35;58754;47.622;-2.986;2023-03-21T10:56:25;16.77;60.37
71098;SHT35;58754;47.622;-2.986;2023-03-21T10:58:57;16.79;60.36
71098;SHT35;58754;47.622;-2.986;2023-03-21T11:01:41;16.79;60.37
71098;SHT35;58754;47.622;-2.986;2023-03-21T11:04:15;16.80;60.32
71098;SHT35;58754;47.622;-2.986;2023-03-21T11:06:44;16.80;60.31
71098;SHT35;58754;47.622;-2.986;2023-03-21T11:09:16;16.79;60.34
71098;SHT35;58754;47.622;-2.986;2023-03-21T11:12:08;16.77;60.31
71098;SHT35;58754;47.622;-2.986;2023-03-21T11:14:39;16.82;60.33
71098;SHT35;58754;47.622;-2.986;2023-03-21T11:17:23;16.83;60.35
71098;SHT35;58754;47.622;-2.986;2023-03-21T11:19:56;16.80;60.33
71098;SHT35;58754;47.622;-2.986;2023-03-21T11:22:27;16.82;60.35
71098;SHT35;58754;47.622;-2.986;2023-03-21T11:25:01;16.82;60.35
71098;SHT35;58754;47.622;-2.986;2023-03-21T11:27:28;16.82;60.32
71098;SHT35;58754;47.622;-2.986;2023-03-21T11:29:55;16.80;60.34
71098;SHT35;58754;47.622;-2.986;2023-03-21T11:32:25;16.83;60.35
71098;SHT35;58754;47.622;-2.986;2023-03-21T11:35:01;16.79;60.32
71098;SHT35;58754;47.622;-2.986;2023-03-21T11:37:41;16.82;60.33
71098;SHT35;58754;47.622;-2.986;2023-03-21T11:40:21;16.83;60.33
71098;SHT35;58754;47.622;-2.986;2023-03-21T11:42:55;16.82;60.34
71098;SHT35;58754;47.622;-2.986;2023-03-21T11:45:22;16.80;60.30
71098;SHT35;58754;47.622;-2.986;2023-03-21T11:47:50;16.83;60.33
71098;SHT35;58754;47.622;-2.986;2023-03-21T11:50:37;16.83;60.29
71098;SHT35;58754;47.622;-2.986;2023-03-21T11:53:24;16.82;60.34
71098;SHT35;58754;47.622;-2.986;2023-03-21T12:01:15;16.83;60.33
71098;SHT35;58754;47.622;-2.986;2023-03-21T12:06:44;16.83;60.30
71098;SHT35;58754;47.622;-2.986;2023-03-21T12:12:05;16.83;60.33
71098;SHT35;58754;47.622;-2.986;2023-03-21T12:28:40;16.83;60.33
71098;SHT35;58754;47.622;-2.986;2023-03-21T12:36:41;16.85;60.31
71098;SHT35;58754;47.622;-2.986;2023-03-21T12:39:37;16.83;60.35
71098;SHT35;58754;47.622;-2.986;2023-03-21T12:44:53;16.83;60.34
71098;SHT35;58754;47.622;-2.986;2023-03-21T12:47:26;16.85;60.35
71098;SHT35;58754;47.622;-2.986;2023-03-21T12:49:54;16.83;60.35
71098;SHT35;58754;47.622;-2.986;2023-03-21T12:52:24;16.83;60.34
71098;SHT35;58754;47.622;-2.986;2023-03-21T12:54:58;16.86;60.33
71098;SHT35;58754;47.622;-2.986;2023-03-21T12:58:03;16.86;60.34
71098;SHT35;58754;47.622;-2.986;2023-03-21T13:00:35;16.83;60.33
71098;SHT35;58754;47.622;-2.986;2023-03-21T13:03:10;16.85;60.36
71098;SHT35;58754;47.622;-2.986;2023-03-21T13:05:47;16.83;60.40
71098;SHT35;58754;47.622;-2.986;2023-03-21T13:08:40;16.85;60.33
71098;SHT35;58754;47.622;-2.986;2023-03-21T13:11:13;16.86;60.35
71098;SHT35;58754;47.622;-2.986;2023-03-21T13:19:10;16.86;60.35
71098;SHT35;58754;47.622;-2.986;2023-03-21T13:21:56;16.85;60.35
71098;SHT35;58754;47.622;-2.986;2023-03-21T13:24:40;16.86;60.32
71098;SHT35;58754;47.622;-2.986;2023-03-21T13:29:51;16.85;60.34
71098;SHT35;58754;47.622;-2.986;2023-03-21T13:32:31;16.86;60.36
71098;SHT35;58754;47.622;-2.986;2023-03-21T13:37:34;16.87;60.38
71098;SHT35;58754;47.622;-2.986;2023-03-21T13:40:18;16.87;60.36
71098;SHT35;58754;47.622;-2.986;2023-03-21T13:42:50;16.86;60.39
71098;SHT35;58754;47.622;-2.986;2023-03-21T13:46:00;16.87;60.37
71098;SHT35;58754;47.622;-2.986;2023-03-21T13:48:28;16.87;60.36
71098;SHT35;58754;47.622;-2.986;2023-03-21T13:51:02;16.86;60.38
71098;SHT35;58754;47.622;-2.986;2023-03-21T13:53:39;16.92;60.37
71098;SHT35;58754;47.622;-2.986;2023-03-21T13:56:20;16.89;60.35
71098;SHT35;58754;47.622;-2.986;2023-03-21T14:01:26;16.87;60.37
71098;SHT35;58754;47.622;-2.986;2023-03-21T14:04:18;16.89;60.38
71098;SHT35;58754;47.622;-2.986;2023-03-21T14:06:54;16.92;60.35
71098;SHT35;58754;47.622;-2.986;2023-03-21T14:11:55;16.89;60.33
71098;SHT35;58754;47.622;-2.986;2023-03-21T14:14:25;16.90;60.36
71098;SHT35;58754;47.622;-2.986;2023-03-21T14:16:54;16.90;60.36
71098;SHT35;58754;47.622;-2.986;2023-03-21T14:19:28;16.93;60.36
71098;SHT35;58754;47.622;-2.986;2023-03-21T14:21:54;16.92;60.35
71098;SHT35;58754;47.622;-2.986;2023-03-21T14:24:21;16.93;60.35
71098;SHT35;58754;47.622;-2.986;2023-03-21T14:26:52;16.92;60.37
71098;SHT35;58754;47.622;-2.986;2023-03-21T14:29:29;16.90;60.35
71098;SHT35;58754;47.622;-2.986;2023-03-21T14:31:56;16.90;60.38
71098;SHT35;58754;47.622;-2.986;2023-03-21T14:34:26;16.92;60.35
71098;SHT35;58754;47.622;-2.986;2023-03-21T14:36:53;16.92;60.35
71098;SHT35;58754;47.622;-2.986;2023-03-21T14:39:25;16.93;60.35
71098;SHT35;58754;47.622;-2.986;2023-03-21T14:41:54;16.92;60.32
71098;SHT35;58754;47.622;-2.986;2023-03-21T14:44:41;16.94;60.32
71098;SHT35;58754;47.622;-2.986;2023-03-21T14:47:17;16.94;60.36
71098;SHT35;58754;47.622;-2.986;2023-03-21T14:49:44;16.94;60.32
71098;SHT35;58754;47.622;-2.986;2023-03-21T14:52:14;16.96;60.31
71098;SHT35;58754;47.622;-2.986;2023-03-21T14:54:43;16.96;60.32
71098;SHT35;58754;47.622;-2.986;2023-03-21T14:57:13;16.94;60.30
71098;SHT35;58754;47.622;-2.986;2023-03-21T14:59:40;16.97;60.29
71098;SHT35;58754;47.622;-2.986;2023-03-21T15:02:22;16.97;60.32
71098;SHT35;58754;47.622;-2.986;2023-03-21T15:04:52;16.96;60.31
71098;SHT35;58754;47.622;-2.986;2023-03-21T15:07:28;16.96;60.31
71098;SHT35;58754;47.622;-2.986;2023-03-21T15:10:00;16.97;60.35
71098;SHT35;58754;47.622;-2.986;2023-03-21T15:12:29;16.97;60.31
71098;SHT35;58754;47.622;-2.986;2023-03-21T15:14:55;16.96;60.29
71098;SHT35;58754;47.622;-2.986;2023-03-21T15:17:21;16.99;60.28
71098;SHT35;58754;47.622;-2.986;2023-03-21T15:19:48;16.97;60.31
71098;SHT35;58754;47.622;-2.986;2023-03-21T15:22:31;16.94;60.30
71098;SHT35;58754;47.622;-2.986;2023-03-21T15:25:01;17.00;60.33
71098;SHT35;58754;47.622;-2.986;2023-03-21T15:27:31;16.97;60.33
71098;SHT35;58754;47.622;-2.986;2023-03-21T15:29:57;16.99;60.29
71098;SHT35;58754;47.622;-2.986;2023-03-21T15:32:25;16.99;60.28
71098;SHT35;58754;47.622;-2.986;2023-03-21T15:35:05;17.00;60.32
71098;SHT35;58754;47.622;-2.986;2023-03-21T15:37:34;16.97;60.33
71098;SHT35;58754;47.622;-2.986;2023-03-21T15:42:42;16.99;60.31
71098;SHT35;58754;47.622;-2.986;2023-03-21T15:45:23;16.99;60.28
71098;SHT35;58754;47.622;-2.986;2023-03-21T15:48:06;17.00;60.26
71098;SHT35;58754;47.622;-2.986;2023-03-21T15:50:34;16.99;60.28
71098;SHT35;58754;47.622;-2.986;2023-03-21T15:53:04;17.00;60.27
71098;SHT35;58754;47.622;-2.986;2023-03-21T15:55:51;17.02;60.29
71098;SHT35;58754;47.622;-2.986;2023-03-21T15:58:26;16.99;60.28
71098;SHT35;58754;47.622;-2.986;2023-03-21T16:00:53;17.00;60.32
71098;SHT35;58754;47.622;-2.986;2023-03-21T16:03:23;17.00;60.33
71098;SHT35;58754;47.622;-2.986;2023-03-21T16:08:35;17.00;60.31
71098;SHT35;58754;47.622;-2.986;2023-03-21T16:13:39;17.02;60.29
71098;SHT35;58754;47.622;-2.986;2023-03-21T16:16:05;17.03;60.29
71098;SHT35;58754;47.622;-2.986;2023-03-21T16:18:31;17.04;60.31
71098;SHT35;58754;47.622;-2.986;2023-03-21T16:20:57;17.02;60.29
71098;SHT35;58754;47.622;-2.986;2023-03-21T16:23:23;17.03;60.29
71098;SHT35;58754;47.622;-2.986;2023-03-21T16:25:50;17.03;60.29
71098;SHT35;58754;47.622;-2.986;2023-03-21T16:28:22;17.04;60.24
71098;SHT35;58754;47.622;-2.986;2023-03-21T16:30:48;17.03;60.25
71098;SHT35;58754;47.622;-2.986;2023-03-21T16:33:14;17.04;60.25
71098;SHT35;58754;47.622;-2.986;2023-03-21T16:35:39;17.02;60.24
71098;SHT35;58754;47.622;-2.986;2023-03-21T16:38:05;17.04;60.26
71098;SHT35;58754;47.622;-2.986;2023-03-21T16:40:35;17.06;60.27
71098;SHT35;58754;47.622;-2.986;2023-03-21T16:43:01;17.06;60.20
71098;SHT35;58754;47.622;-2.986;2023-03-21T16:45:26;17.04;60.24
71098;SHT35;58754;47.622;-2.986;2023-03-21T16:47:56;17.04;60.20
71098;SHT35;58754;47.622;-2.986;2023-03-21T16:50:32;17.06;60.23
71098;SHT35;58754;47.622;-2.986;2023-03-21T16:52:59;17.04;60.25
71098;SHT35;58754;47.622;-2.986;2023-03-21T16:55:26;17.06;60.27
71098;SHT35;58754;47.622;-2.986;2023-03-21T16:57:52;17.06;60.24
71098;SHT35;58754;47.622;-2.986;2023-03-21T17:00:21;17.06;60.24
71098;SHT35;58754;47.622;-2.986;2023-03-21T17:02:52;17.06;60.22